Terminal Aerodrome Forecast
Issued by NWS Charleston, WV

Home | Current Version | Previous Version | Text Only | Print | Product List | Glossary On
Versions: 1 2 3 4 5 6 7 8 9 10 11 12 13 14 15 16 17 18 19 20 21
000
FTUS41 KRLX 011130
TAFBKW
TAF
KBKW 011130Z 0112/0212 19005G19KT 4SM -SHRA BKN008 OVC015
     FM011400 19008KT P6SM -SHRA OVC035
     FM011600 21009KT P6SM -SHRA VCTS BKN040CB
     FM011700 22009G25KT 6SM -TSRA HZ BKN040CB
     FM020500 20005KT P6SM -SHRA VCTS OVC040CB
     FM020900 20005KT P6SM VCTS BKN040CB=

USA.gov is the U.S. government's official web portal to all federal, state and local government web resources and services.